createdAt,value
2023-03-22T00:01:54.463Z,93769.50
2023-03-22T00:04:21.266Z,93760.88
2023-03-22T00:06:47.950Z,93762.91
2023-03-22T00:09:14.614Z,93767.25
2023-03-22T00:11:41.193Z,93763.16
2023-03-22T00:14:08.064Z,93760.53
2023-03-22T00:16:34.935Z,93761.34
2023-03-22T00:19:02.284Z,93770.38
2023-03-22T00:21:28.997Z,93760.09
2023-03-22T00:23:55.601Z,93763.28
2023-03-22T00:26:22.406Z,93763.47
2023-03-22T00:28:49.174Z,93763.97
2023-03-22T00:31:15.864Z,93759.75
2023-03-22T00:33:42.502Z,93754.31
2023-03-22T00:36:11.688Z,93759.97
2023-03-22T00:38:43.843Z,93752.97
2023-03-22T00:41:12.636Z,93757.28
2023-03-22T00:43:39.389Z,93755.59
2023-03-22T00:46:06.690Z,93752.09
2023-03-22T00:48:33.490Z,93749.34
2023-03-22T00:51:00.238Z,93743.50
2023-03-22T00:53:29.149Z,93755.72
2023-03-22T00:55:57.490Z,93754.81
2023-03-22T00:58:24.391Z,93748.03
2023-03-22T01:00:51.599Z,93744.75
2023-03-22T01:03:18.481Z,93750.19
2023-03-22T01:05:46.263Z,93746.78
2023-03-22T01:08:12.983Z,93746.69
2023-03-22T01:10:41.742Z,93742.69
2023-03-22T01:13:09.413Z,93738.78
2023-03-22T01:15:36.700Z,93741.31
2023-03-22T01:18:04.159Z,93737.25
2023-03-22T01:20:31.830Z,93736.81
2023-03-22T01:22:58.540Z,93735.69
2023-03-22T01:25:25.368Z,93740.00
2023-03-22T01:27:52.398Z,93737.16
2023-03-22T01:30:19.178Z,93739.56
2023-03-22T01:32:45.869Z,93730.97
2023-03-22T01:35:12.512Z,93727.66
2023-03-22T01:37:39.190Z,93727.28
2023-03-22T01:40:06.810Z,93724.38
2023-03-22T01:42:33.503Z,93718.31
2023-03-22T01:45:15.486Z,93718.44
2023-03-22T01:47:48.443Z,93721.94
2023-03-22T01:50:17.323Z,93728.53
2023-03-22T01:52:44.858Z,93723.97
2023-03-22T01:55:12.227Z,93727.03
2023-03-22T01:57:41.210Z,93722.06
2023-03-22T02:00:13.941Z,93722.44
2023-03-22T02:02:40.943Z,93722.19
2023-03-22T02:05:09.070Z,93720.66
2023-03-22T02:07:37.530Z,93723.72
2023-03-22T02:10:05.099Z,93719.09
2023-03-22T02:12:43.681Z,93723.19
2023-03-22T02:15:30.132Z,93722.72
2023-03-22T02:17:59.698Z,93723.41
2023-03-22T02:20:47.136Z,93718.38
2023-03-22T02:23:20.024Z,93723.06
2023-03-22T02:26:14.589Z,93723.19
2023-03-22T02:28:49.835Z,93728.63
2023-03-22T02:31:50.488Z,93719.16
2023-03-22T02:34:38.813Z,93734.41
2023-03-22T02:37:08.222Z,93735.19
2023-03-22T02:39:41.867Z,93734.91
2023-03-22T02:42:16.592Z,93733.47
2023-03-22T02:44:46.150Z,93739.00
2023-03-22T02:47:21.930Z,93743.81
2023-03-22T02:50:35.449Z,93734.38
2023-03-22T02:53:19.254Z,93745.16
2023-03-22T02:55:55.846Z,93745.63
2023-03-22T02:58:34.994Z,93735.75
2023-03-22T03:01:05.903Z,93738.34
2023-03-22T03:03:33.870Z,93739.41
2023-03-22T03:06:08.487Z,93739.81
2023-03-22T03:08:37.143Z,93742.50
2023-03-22T03:11:04.096Z,93741.38
2023-03-22T03:13:31.031Z,93742.31
2023-03-22T03:16:00.149Z,93743.09
2023-03-22T03:18:35.129Z,93745.03
2023-03-22T03:21:39.197Z,93745.75
2023-03-22T03:24:23.352Z,93746.56
2023-03-22T03:27:14.376Z,93742.53
2023-03-22T03:29:46.021Z,93749.22
2023-03-22T03:32:19.402Z,93745.31
2023-03-22T03:34:49.773Z,93749.25
2023-03-22T03:37:22.115Z,93755.38
2023-03-22T03:39:58.478Z,93755.03
2023-03-22T03:42:28.089Z,93755.44
2023-03-22T03:44:56.323Z,93756.94
2023-03-22T03:47:24.160Z,93753.16
2023-03-22T03:49:51.961Z,93759.09
2023-03-22T03:52:19.079Z,93766.38
2023-03-22T03:54:45.726Z,93764.09
2023-03-22T03:57:12.389Z,93774.13
2023-03-22T03:59:39.183Z,93768.19
2023-03-22T04:02:06.042Z,93765.38
2023-03-22T04:04:34.828Z,93764.38
2023-03-22T04:07:04.059Z,93763.72
2023-03-22T04:09:37.075Z,93774.81
2023-03-22T04:12:04.076Z,93772.63
2023-03-22T04:14:30.824Z,93785.09
2023-03-22T04:16:57.622Z,93790.72
2023-03-22T04:19:24.277Z,93781.47
2023-03-22T04:21:53.328Z,93785.16
2023-03-22T04:24:22.039Z,93770.66
2023-03-22T04:26:48.950Z,93775.19
2023-03-22T04:29:16.171Z,93777.97
2023-03-22T04:31:42.770Z,93775.56
2023-03-22T04:34:09.551Z,93773.81
2023-03-22T04:36:39.541Z,93775.84
2023-03-22T04:39:09.641Z,93779.75
2023-03-22T04:41:37.143Z,93785.59
2023-03-22T04:44:05.700Z,93791.50
2023-03-22T04:46:34.907Z,93787.44
2023-03-22T04:49:01.771Z,93792.94
2023-03-22T04:51:28.860Z,93793.44
2023-03-22T04:53:55.534Z,93794.38
2023-03-22T04:56:22.469Z,93798.25
2023-03-22T04:58:49.285Z,93803.34
2023-03-22T05:01:18.243Z,93797.44
2023-03-22T05:03:47.427Z,93806.56
2023-03-22T05:06:14.932Z,93800.44
2023-03-22T05:08:41.735Z,93800.56
2023-03-22T05:11:12.203Z,93803.22
2023-03-22T05:13:39.528Z,93808.19
2023-03-22T05:16:07.493Z,93803.00
2023-03-22T05:18:34.209Z,93806.34
2023-03-22T05:21:03.805Z,93815.88
2023-03-22T05:23:30.678Z,93811.03
2023-03-22T05:25:58.350Z,93818.16
2023-03-22T05:28:27.225Z,93818.97
2023-03-22T05:30:56.596Z,93817.69
2023-03-22T05:33:23.642Z,93819.59
2023-03-22T05:35:51.301Z,93818.31
2023-03-22T05:38:18.095Z,93823.72
2023-03-22T05:44:31.996Z,93823.09
2023-03-22T05:46:58.815Z,93825.75
2023-03-22T05:49:26.970Z,93829.91
2023-03-22T05:51:53.711Z,93828.19
2023-03-22T05:54:20.395Z,93831.50
2023-03-22T05:56:47.365Z,93836.81
2023-03-22T05:59:14.161Z,93839.47
2023-03-22T06:01:41.159Z,93843.94
2023-03-22T06:04:07.828Z,93844.34
2023-03-22T06:06:34.597Z,93842.91
2023-03-22T06:09:16.029Z,93854.41
2023-03-22T06:11:44.002Z,93847.88
2023-03-22T06:14:10.660Z,93851.75
2023-03-22T06:16:37.408Z,93853.22
2023-03-22T06:19:04.069Z,93852.16
2023-03-22T06:21:30.720Z,93849.50
2023-03-22T06:23:57.324Z,93852.25
2023-03-22T06:26:24.008Z,93856.78
2023-03-22T06:28:51.023Z,93848.00
2023-03-22T06:31:17.799Z,93850.09
2023-03-22T06:33:45.578Z,93852.16
2023-03-22T06:36:12.217Z,93858.06
2023-03-22T06:38:38.830Z,93849.69
2023-03-22T06:41:05.824Z,93868.47
2023-03-22T06:43:32.457Z,93869.19
2023-03-22T06:45:59.143Z,93861.56
2023-03-22T06:48:25.922Z,93866.91
2023-03-22T06:50:52.632Z,93868.69
2023-03-22T06:53:19.318Z,93869.03
2023-03-22T06:55:46.019Z,93876.47
2023-03-22T06:58:12.948Z,93874.09
2023-03-22T07:00:40.059Z,93880.06
2023-03-22T07:03:06.812Z,93878.16
2023-03-22T07:05:33.430Z,93882.09
2023-03-22T07:07:59.993Z,93891.78
2023-03-22T07:10:26.636Z,93892.31
2023-03-22T07:12:53.438Z,93884.75
2023-03-22T07:15:24.407Z,93886.47
2023-03-22T07:17:52.172Z,93885.09
2023-03-22T07:20:19.919Z,93889.91
2023-03-22T07:22:46.619Z,93894.66
2023-03-22T07:25:13.782Z,93899.22
2023-03-22T07:27:40.641Z,93899.81
2023-03-22T07:30:09.718Z,93907.31
2023-03-22T07:32:36.743Z,93901.16
2023-03-22T07:35:03.538Z,93909.81
2023-03-22T07:37:30.412Z,93913.09
2023-03-22T07:39:57.041Z,93916.97
2023-03-22T07:42:23.825Z,93919.38
2023-03-22T07:44:50.634Z,93918.25
2023-03-22T07:47:30.571Z,93916.97
2023-03-22T07:49:57.577Z,93920.44
2023-03-22T07:52:24.203Z,93922.34
2023-03-22T07:54:50.852Z,93919.25
2023-03-22T07:57:20.490Z,93922.47
2023-03-22T07:59:47.255Z,93924.34
2023-03-22T08:02:14.338Z,93924.56
2023-03-22T08:04:41.314Z,93926.69
2023-03-22T08:07:11.079Z,93930.31
2023-03-22T08:09:38.010Z,93917.88
2023-03-22T08:12:04.711Z,93925.63
2023-03-22T08:14:36.570Z,93924.81
2023-03-22T08:17:06.785Z,93923.63
2023-03-22T08:19:34.736Z,93925.34
2023-03-22T08:22:01.458Z,93929.44
2023-03-22T08:24:28.030Z,93915.75
2023-03-22T08:26:54.708Z,93930.13
2023-03-22T08:29:23.280Z,93928.59
2023-03-22T08:31:50.883Z,93937.16
2023-03-22T08:34:17.578Z,93928.63
2023-03-22T08:36:44.141Z,93926.81
2023-03-22T08:39:10.737Z,93931.34
2023-03-22T08:41:37.434Z,93926.44
2023-03-22T08:44:04.148Z,93935.50
2023-03-22T08:46:31.081Z,93941.84
2023-03-22T08:49:00.433Z,93946.03
2023-03-22T08:51:27.126Z,93941.63
2023-03-22T08:53:53.832Z,93944.53
2023-03-22T08:56:22.653Z,93945.22
2023-03-22T08:58:49.261Z,93951.22
2023-03-22T09:01:17.882Z,93951.06
2023-03-22T09:03:44.634Z,93943.03
2023-03-22T09:06:11.429Z,93952.88
2023-03-22T09:08:38.398Z,93951.78
2023-03-22T09:11:07.863Z,93956.91
2023-03-22T09:13:34.782Z,93959.03
2023-03-22T09:16:02.386Z,93953.31
2023-03-22T09:18:29.008Z,93952.22
2023-03-22T09:20:55.797Z,93952.41
2023-03-22T09:23:22.484Z,93954.63
2023-03-22T09:25:49.201Z,93954.25
2023-03-22T09:28:16.812Z,93952.75
2023-03-22T09:30:44.892Z,93950.19
2023-03-22T09:33:11.617Z,93952.56
2023-03-22T09:35:42.954Z,93946.31
2023-03-22T09:38:10.736Z,93952.56
2023-03-22T09:40:43.351Z,93952.13
2023-03-22T09:43:13.679Z,93952.75
2023-03-22T09:45:48.590Z,93948.31
2023-03-22T09:48:27.706Z,93951.13
2023-03-22T09:50:55.406Z,93951.97
2023-03-22T09:53:26.774Z,93953.03
2023-03-22T09:55:59.232Z,93955.28
2023-03-22T09:58:44.321Z,93951.28
2023-03-22T10:01:24.459Z,93949.50
2023-03-22T10:04:40.686Z,93960.00
2023-03-22T10:07:20.489Z,93957.22
2023-03-22T10:09:54.864Z,93954.38
2023-03-22T10:12:31.476Z,93963.22
2023-03-22T10:15:05.706Z,93959.91
2023-03-22T10:17:32.495Z,93965.19
2023-03-22T10:20:25.477Z,93964.75
2023-03-22T10:22:55.172Z,93957.00
2023-03-22T10:25:31.178Z,93960.16
2023-03-22T10:27:58.998Z,93963.19
2023-03-22T10:30:28.665Z,93965.13
2023-03-22T10:33:13.492Z,93970.09
2023-03-22T10:35:44.095Z,93967.66
2023-03-22T10:38:28.449Z,93968.81
2023-03-22T10:40:58.388Z,93958.34
2023-03-22T10:43:39.495Z,93961.28
2023-03-22T10:46:12.459Z,93963.34
2023-03-22T10:48:45.566Z,93963.03
2023-03-22T10:51:27.888Z,93964.63
2023-03-22T10:53:58.230Z,93966.09
2023-03-22T10:56:25.253Z,93960.16
2023-03-22T10:58:52.836Z,93958.47
2023-03-22T11:01:27.536Z,93964.47
2023-03-22T11:04:00.242Z,93966.03
2023-03-22T11:06:36.991Z,93959.34
2023-03-22T11:09:32.768Z,93958.47
2023-03-22T11:12:00.718Z,93962.88
2023-03-22T11:14:34.092Z,93962.16
2023-03-22T11:17:06.795Z,93966.00
2023-03-22T11:19:36.667Z,93958.16
2023-03-22T11:22:07.784Z,93959.84
2023-03-22T11:24:34.846Z,93953.09
2023-03-22T11:27:04.954Z,93956.56
2023-03-22T11:29:44.351Z,93962.06
2023-03-22T11:32:26.483Z,93948.66
2023-03-22T11:35:11.176Z,93945.69
2023-03-22T11:37:51.462Z,93950.47
2023-03-22T11:40:22.311Z,93944.44
2023-03-22T11:42:53.288Z,93953.88
2023-03-22T11:45:36.105Z,93951.31
2023-03-22T11:48:07.688Z,93954.06
2023-03-22T11:50:37.247Z,93945.72
2023-03-22T11:53:06.856Z,93946.06
2023-03-22T11:55:36.408Z,93937.09
2023-03-22T11:58:04.777Z,93947.97
2023-03-22T12:00:37.627Z,93938.00
2023-03-22T12:03:09.769Z,93945.78
2023-03-22T12:05:43.069Z,93948.56
2023-03-22T12:08:39.256Z,93944.53
2023-03-22T12:11:17.860Z,93941.75
2023-03-22T12:13:59.198Z,93938.25
2023-03-22T12:16:31.999Z,93942.16
2023-03-22T12:19:22.601Z,93941.66
2023-03-22T12:21:51.645Z,93940.66
2023-03-22T12:24:36.090Z,93940.78
2023-03-22T12:27:23.173Z,93936.38
2023-03-22T12:30:22.609Z,93940.31
2023-03-22T12:32:54.533Z,93931.44
2023-03-22T12:35:31.396Z,93935.34
2023-03-22T12:38:02.219Z,93942.59
2023-03-22T12:40:34.410Z,93929.50
2023-03-22T12:43:16.241Z,93933.88
2023-03-22T12:45:49.182Z,93923.78
2023-03-22T12:48:18.245Z,93923.16
2023-03-22T12:50:51.606Z,93930.38
2023-03-22T12:53:20.073Z,93932.66
2023-03-22T12:55:48.130Z,93934.94
2023-03-22T12:58:22.395Z,93935.53
2023-03-22T13:00:54.980Z,93934.78
2023-03-22T13:03:47.981Z,93932.41
2023-03-22T13:06:33.689Z,93917.88
2023-03-22T13:09:03.171Z,93928.25
2023-03-22T13:11:29.877Z,93928.84
2023-03-22T13:13:56.741Z,93923.84
2023-03-22T13:16:24.611Z,93926.50
2023-03-22T13:18:52.648Z,93925.94
2023-03-22T13:21:29.852Z,93917.94
2023-03-22T13:24:01.227Z,93927.53
2023-03-22T13:26:52.907Z,93922.16
2023-03-22T13:29:26.006Z,93925.09
2023-03-22T13:32:05.944Z,93922.34
2023-03-22T13:34:40.880Z,93919.88
2023-03-22T13:37:31.596Z,93911.56
2023-03-22T13:40:02.319Z,93919.38
2023-03-22T13:42:36.755Z,93920.25
2023-03-22T13:45:07.453Z,93925.97
2023-03-22T13:47:45.628Z,93924.16
2023-03-22T13:50:28.130Z,93931.13
2023-03-22T13:53:02.266Z,93929.38
2023-03-22T13:55:57.113Z,93924.75
2023-03-22T13:58:50.732Z,93930.91
2023-03-22T14:01:28.135Z,93925.91
2023-03-22T14:04:02.235Z,93927.91
2023-03-22T14:06:35.374Z,93926.84
2023-03-22T14:09:13.428Z,93923.72
2023-03-22T14:11:48.185Z,93917.09
2023-03-22T14:14:25.366Z,93924.28
2023-03-22T14:17:16.055Z,93925.25
2023-03-22T14:19:43.209Z,93923.13
